KMFE

Mc Allen Miller International Airport

Mc Allen, Texas, USA
METAR KMFE 151553Z 34010KT 10SM CLR 17/M04 A3032 RMK AO2 SLP267 T01721039
Observed Flight Rules
Dec-15 @ 15:53 UTC (10 minutes ago) Visual Flight Rules
Wind Visibility Clouds
340° at 10 knots 10 miles
  • Clear skies
Temperatures Readings
Current 17°C / 63°F
Dewpoint -4°C / 25°F
Humidity 24%
Altimeter 30.32" Hg
Pressure 1026.7 hPa
Elevation 38
METAR KMFE 151553Z 34010KT 10SM CLR 17/M04 A3032 RMK AO2 SLP267 T01721039
Observed Flight Rules
Dec-15 @ 15:53 UTC
(10 minutes ago)
VFR
Wind Visibility
340° at 10 knots 10 miles
Clouds
  • Clear skies
Temperature Dewpoint
17°C / 63°F -4°C / 25°F
Humidity Altimeter Pressure
24% 30.32" Hg 1026.7 hPa